Time;durP1;ratioP1;P1;durP2;ratioP2;P2;SDS_P1;SDS_P2;PMS_P1;PMS_P2;Temp;Humidity;BMP_temperature;BMP_pressure;BME280_temperature;BME280_humidity;BME280_pressure;Samples;Min_cycle;Max_cycle;Signal;HPM_P1;HPM_P2
2021/04/24 00:00:28;;;;;;;3.90;1.60;;;;;;;5.26;55.68;100414.89;1727710;81;21325;-83
2021/04/24 00:02:56;;;;;;;1.50;1.03;;;;;;;5.20;55.96;100411.04;1720079;81;21302;-83
2021/04/24 00:05:29;;;;;;;2.37;1.27;;;;;;;5.15;56.18;100411.16;1739869;81;21666;-83
2021/04/24 00:08:01;;;;;;;1.43;1.33;;;;;;;5.12;56.36;100408.80;1735817;81;21167;-83
2021/04/24 00:10:31;;;;;;;2.03;1.00;;;;;;;5.07;56.77;100403.48;1729921;82;21180;-83
2021/04/24 00:12:59;;;;;;;2.30;1.30;;;;;;;5.03;56.55;100406.09;1713487;81;21581;-83
2021/04/24 00:15:27;;;;;;;4.87;1.00;;;;;;;4.99;56.76;100405.20;1727573;80;21191;-83
2021/04/24 00:17:54;;;;;;;1.80;0.70;;;;;;;4.97;56.97;100411.13;1745270;80;21188;-82
2021/04/24 00:20:24;;;;;;;1.87;1.40;;;;;;;4.95;57.00;100403.35;1732565;81;21151;-82
2021/04/24 00:22:53;;;;;;;4.70;1.20;;;;;;;4.92;57.08;100400.20;1753109;80;21128;-84
2021/04/24 00:25:20;;;;;;;3.60;1.77;;;;;;;4.90;57.05;100404.78;1729072;80;21172;-82
2021/04/24 00:27:47;;;;;;;1.83;1.30;;;;;;;4.87;58.04;100396.18;1795541;78;21175;-82
2021/04/24 00:30:16;;;;;;;1.30;0.87;;;;;;;4.85;57.65;100405.24;1797709;77;21200;-83
2021/04/24 00:32:45;;;;;;;2.77;1.13;;;;;;;4.81;58.07;100398.11;1819194;78;21215;-82
2021/04/24 00:35:17;;;;;;;1.60;1.50;;;;;;;4.79;58.15;100405.84;1786839;79;21131;-81
2021/04/24 00:37:46;;;;;;;1.27;1.03;;;;;;;4.76;58.52;100406.14;1798591;77;21183;-81
2021/04/24 00:40:16;;;;;;;4.27;1.50;;;;;;;4.72;58.72;100408.23;1807794;78;21143;-83
2021/04/24 00:42:46;;;;;;;2.43;1.47;;;;;;;4.68;58.89;100410.34;1805233;78;21578;-83
2021/04/24 00:45:17;;;;;;;2.97;1.20;;;;;;;4.67;58.65;100407.84;1795583;78;21085;-80
2021/04/24 00:47:45;;;;;;;2.80;1.10;;;;;;;4.67;59.06;100407.84;1764552;79;21216;-80
2021/04/24 00:50:18;;;;;;;2.00;1.80;;;;;;;4.65;59.53;100403.20;1787584;79;21588;-81
2021/04/24 00:52:45;;;;;;;4.77;1.50;;;;;;;4.62;59.86;100409.63;1784650;79;21163;-82
2021/04/24 00:55:13;;;;;;;2.60;1.10;;;;;;;4.70;59.66;100403.59;1762727;79;21195;-81
2021/04/24 00:57:41;;;;;;;2.47;1.23;;;;;;;4.84;59.51;100405.74;1768363;79;21164;-80
2021/04/24 01:00:12;;;;;;;2.33;1.50;;;;;;;4.88;59.55;100413.70;1789978;78;21180;-82
2021/04/24 01:02:40;;;;;;;1.23;1.03;;;;;;;4.86;59.74;100415.66;1812063;77;21147;-81
2021/04/24 01:05:11;;;;;;;3.97;1.57;;;;;;;4.84;60.39;100400.46;1788029;78;21851;-83
2021/04/24 01:07:41;;;;;;;1.33;1.20;;;;;;;4.82;60.21;100403.74;1804248;78;21223;-82
2021/04/24 01:10:12;;;;;;;3.03;1.70;;;;;;;4.81;60.40;100406.03;1775123;79;21160;-81
2021/04/24 01:12:39;;;;;;;2.00;1.20;;;;;;;4.79;60.49;100397.43;1747485;80;21113;-82
2021/04/24 01:15:09;;;;;;;4.73;1.50;;;;;;;4.75;60.85;100400.03;1709910;80;21233;-82
2021/04/24 01:17:35;;;;;;;1.57;1.47;;;;;;;4.71;60.88;100398.67;1749028;80;21143;-82
2021/04/24 01:20:05;;;;;;;2.10;1.00;;;;;;;4.67;60.76;100401.24;1708631;82;21212;-82
2021/04/24 01:22:32;;;;;;;3.43;1.73;;;;;;;4.63;61.01;100402.06;1710366;81;21192;-82
2021/04/24 01:24:59;;;;;;;2.23;1.33;;;;;;;4.61;60.95;100410.59;1772291;80;21193;-82
2021/04/24 01:27:26;;;;;;;3.03;1.20;;;;;;;4.56;61.18;100401.45;1777341;79;21341;-81
2021/04/24 01:29:53;;;;;;;1.60;1.23;;;;;;;4.52;61.33;100402.27;1758993;79;21318;-82
2021/04/24 01:32:20;;;;;;;1.03;0.93;;;;;;;4.49;61.15;100402.05;1760105;79;21637;-83
2021/04/24 01:34:48;;;;;;;2.43;1.20;;;;;;;4.48;61.91;100399.08;1768324;79;21270;-82
2021/04/24 01:37:16;;;;;;;4.07;0.97;;;;;;;4.51;61.52;100401.08;1782001;79;21619;-82
2021/04/24 01:39:43;;;;;;;1.80;1.10;;;;;;;4.60;61.32;100389.64;1760013;79;21362;-81
2021/04/24 01:42:10;;;;;;;;;;;;;;;4.59;61.38;100394.06;1771437;80;21593;-82
2021/04/24 01:44:37;;;;;;;1.40;1.00;;;;;;;4.54;61.12;100397.66;1784114;79;20147;-81
2021/04/24 01:47:07;;;;;;;0.90;0.87;;;;;;;4.45;61.23;100395.91;1771603;79;21160;-81
2021/04/24 01:49:34;;;;;;;1.93;0.90;;;;;;;4.42;61.19;100402.78;1794206;79;21903;-81
2021/04/24 01:52:01;;;;;;;2.50;1.00;;;;;;;4.39;60.98;100401.75;1771955;79;21168;-81
2021/04/24 01:54:28;;;;;;;2.63;1.17;;;;;;;4.36;61.59;100409.98;1774816;79;21168;-80
2021/04/24 01:56:57;;;;;;;;;;;;;;;4.30;61.56;100414.03;1811977;78;21103;-81
2021/04/24 01:59:32;;;;;;;2.80;1.63;;;;;;;4.24;61.55;100411.48;1798146;78;20180;-80
2021/04/24 02:01:59;;;;;;;2.50;1.53;;;;;;;4.13;61.88;100410.34;1807152;77;21380;-80
2021/04/24 02:04:28;;;;;;;4.07;1.50;;;;;;;4.10;62.26;100407.98;1816583;77;21171;-80
2021/04/24 02:06:55;;;;;;;3.13;1.33;;;;;;;4.05;62.81;100411.53;1786432;77;21187;-80
2021/04/24 02:09:24;;;;;;;2.50;1.67;;;;;;;4.01;62.93;100404.42;1787874;79;21171;-78
2021/04/24 02:12:13;;;;;;;1.43;1.10;;;;;;;3.96;62.71;100408.47;1794555;77;21237;-81
2021/04/24 02:14:47;;;;;;;0.93;0.80;;;;;;;4.00;62.92;100406.70;1783288;80;21187;-82
2021/04/24 02:17:19;;;;;;;1.90;1.17;;;;;;;4.13;62.70;100403.75;1775180;80;21171;-80
2021/04/24 02:19:49;;;;;;;1.53;1.43;;;;;;;4.15;63.13;100408.39;1779934;80;21191;-81
2021/04/24 02:22:19;;;;;;;1.47;1.37;;;;;;;4.07;63.37;100408.30;1776190;79;21195;-81
2021/04/24 02:24:54;;;;;;;2.00;1.17;;;;;;;4.01;63.62;100411.48;1782433;78;21146;-81
2021/04/24 02:27:24;;;;;;;2.10;1.90;;;;;;;3.95;63.86;100410.25;1771931;79;21183;-82
2021/04/24 02:29:54;;;;;;;2.90;2.13;;;;;;;3.90;64.01;100413.83;1776185;79;21609;-80
2021/04/24 02:32:24;;;;;;;1.67;1.30;;;;;;;3.85;64.44;100407.65;1701745;82;21779;-82
2021/04/24 02:34:52;;;;;;;2.50;1.67;;;;;;;3.82;64.68;100412.38;1725321;81;21771;-82
2021/04/24 02:37:20;;;;;;;3.20;1.40;;;;;;;3.79;65.01;100407.41;1720216;82;21309;-81
2021/04/24 02:39:50;;;;;;;1.50;1.40;;;;;;;3.79;65.22;100410.87;1721791;83;21190;-83
2021/04/24 02:42:22;;;;;;;2.00;1.90;;;;;;;3.87;64.83;100410.15;1720975;81;21171;-82
2021/04/24 02:44:50;;;;;;;2.87;1.67;;;;;;;3.89;64.98;100408.20;1721644;82;21139;-81
2021/04/24 02:47:19;;;;;;;1.70;1.60;;;;;;;3.82;65.25;100409.24;1727186;81;21187;-82
2021/04/24 02:49:49;;;;;;;2.80;2.40;;;;;;;3.77;65.58;100414.59;1685202;82;21302;-82
2021/04/24 02:52:17;;;;;;;3.20;2.10;;;;;;;3.73;65.66;100411.44;1729280;82;21223;-82
2021/04/24 02:54:44;;;;;;;2.37;1.53;;;;;;;3.72;65.67;100415.53;1777428;79;21779;-83
2021/04/24 02:57:11;;;;;;;3.67;2.23;;;;;;;3.70;65.90;100415.17;1789603;79;21135;-81
2021/04/24 02:59:38;;;;;;;;;;;;;;;3.67;66.24;100420.75;1787160;80;21167;-83
2021/04/24 03:02:04;;;;;;;4.23;1.90;;;;;;;3.74;66.26;100418.86;1780436;80;20581;-82
2021/04/24 03:04:32;;;;;;;3.17;1.90;;;;;;;3.83;65.82;100421.96;1779871;80;21175;-84
2021/04/24 03:06:59;;;;;;;1.53;1.43;;;;;;;3.88;65.96;100419.24;1783691;80;21675;-83
2021/04/24 03:09:25;;;;;;;2.60;1.90;;;;;;;3.92;65.96;100432.98;1781907;80;21610;-81
2021/04/24 03:11:52;;;;;;;;;;;;;;;4.01;65.92;100430.80;1782967;77;21495;-82
2021/04/24 03:14:19;;;;;;;2.33;2.07;;;;;;;4.16;65.71;100423.73;1781976;79;20475;-84
2021/04/24 03:16:46;;;;;;;6.10;1.83;;;;;;;4.39;65.55;100419.75;1746581;80;21217;-82
2021/04/24 03:19:14;;;;;;;1.60;1.47;;;;;;;4.81;63.98;100412.63;1770933;80;21136;-82
2021/04/24 03:21:41;;;;;;;2.17;1.37;;;;;;;5.20;63.15;100416.82;1774846;80;21207;-84
2021/04/24 03:24:08;;;;;;;;;;;;;;;5.61;62.04;100417.13;1786888;78;21567;-83
2021/04/24 03:26:36;;;;;;;2.20;1.20;;;;;;;6.04;60.79;100414.14;1780020;79;20278;-82
2021/04/24 03:29:04;;;;;;;1.40;1.27;;;;;;;6.45;59.39;100408.23;1778114;79;21156;-84
2021/04/24 03:31:32;;;;;;;1.20;1.10;;;;;;;6.89;58.12;100419.94;1752334;80;21180;-84
2021/04/24 03:34:00;;;;;;;3.43;1.20;;;;;;;7.21;56.74;100410.73;1721482;81;21103;-84
2021/04/24 03:36:27;;;;;;;3.30;1.37;;;;;;;7.45;55.57;100417.52;1736672;82;21334;-82
2021/04/24 03:38:54;;;;;;;1.33;1.07;;;;;;;7.58;55.39;100423.97;1779188;79;21168;-82
2021/04/24 03:41:22;;;;;;;4.93;1.27;;;;;;;7.60;54.72;100424.63;1751639;80;21155;-82
2021/04/24 03:43:50;;;;;;;1.17;0.70;;;;;;;7.44;55.17;100434.41;1750305;81;21258;-83
2021/04/24 03:46:18;;;;;;;1.67;1.57;;;;;;;7.33;55.32;100440.90;1747407;80;21128;-84
2021/04/24 03:48:45;;;;;;;2.87;1.27;;;;;;;7.17;55.51;100442.51;1727438;82;21195;-83
2021/04/24 03:51:11;;;;;;;2.23;1.20;;;;;;;6.91;55.89;100447.95;1735547;82;21188;-84
2021/04/24 03:53:38;;;;;;;2.03;1.33;;;;;;;6.82;56.62;100446.27;1711152;82;21211;-81
2021/04/24 03:56:06;;;;;;;0.87;0.87;;;;;;;6.82;56.47;100447.09;1738234;82;21136;-82
2021/04/24 03:58:33;;;;;;;2.10;1.10;;;;;;;6.66;56.67;100451.00;1722868;82;21733;-85
2021/04/24 04:00:59;;;;;;;1.90;1.23;;;;;;;6.43;57.25;100452.07;1779929;79;21787;-84
2021/04/24 04:03:26;;;;;;;2.50;1.47;;;;;;;6.23;57.95;100459.41;1746645;80;21645;-84
2021/04/24 04:05:53;;;;;;;3.07;1.90;;;;;;;5.99;58.65;100464.90;1731918;82;21338;-83
2021/04/24 04:08:20;;;;;;;2.80;1.47;;;;;;;5.79;58.97;100468.19;1741654;82;21343;-84
2021/04/24 04:10:48;;;;;;;2.30;1.70;;;;;;;5.61;59.41;100459.44;1739647;82;21342;-85
2021/04/24 04:13:15;;;;;;;;;;;;;;;5.49;59.50;100462.83;1704747;82;21611;-84
2021/04/24 04:17:22;;;;;;;1.53;1.43;;;;;;;5.34;60.76;100464.34;1757667;78;22991;-80
2021/04/24 04:19:49;;;;;;;1.57;1.07;;;;;;;5.20;60.67;100465.21;1730863;82;21345;-81
2021/04/24 04:22:15;;;;;;;;;;;;;;;5.19;60.67;100472.78;1729034;80;21172;-80
2021/04/24 04:24:42;;;;;;;1.70;1.60;;;;;;;5.20;61.24;100477.11;1689545;83;20200;-80
2021/04/24 04:27:09;;;;;;;;;;;;;;;5.14;60.84;100475.07;1699765;83;21206;-80
2021/04/24 04:29:35;;;;;;;2.37;1.37;;;;;;;5.11;60.88;100470.07;1697899;83;20829;-82
2021/04/24 04:32:03;;;;;;;1.57;1.47;;;;;;;5.04;60.80;100480.89;1693118;83;21323;-82
2021/04/24 04:34:30;;;;;;;2.00;1.67;;;;;;;4.98;60.90;100477.03;1684434;81;21043;-81
2021/04/24 04:36:58;;;;;;;3.83;1.90;;;;;;;4.97;61.06;100483.78;1689842;83;21493;-82
2021/04/24 04:39:24;;;;;;;5.00;1.37;;;;;;;4.98;60.87;100486.78;1678677;83;21321;-80
2021/04/24 04:41:51;;;;;;;3.87;1.10;;;;;;;5.06;60.87;100486.85;1684253;83;21203;-81
2021/04/24 04:44:18;;;;;;;;;;;;;;;5.25;60.44;100484.09;1685645;83;21193;-80
2021/04/24 04:46:47;;;;;;;1.32;1.22;;;;;;;5.32;60.12;100481.67;1672955;84;20209;-81
2021/04/24 04:49:14;;;;;;;3.13;1.40;;;;;;;5.26;60.12;100485.74;1666198;84;21324;-81
2021/04/24 04:51:41;;;;;;;2.77;1.90;;;;;;;5.28;60.39;100485.60;1675759;84;21183;-81
2021/04/24 04:54:09;;;;;;;2.67;1.60;;;;;;;5.35;60.33;100481.84;1673442;84;21412;-79
2021/04/24 04:56:37;;;;;;;2.23;1.60;;;;;;;5.39;60.35;100479.27;1669581;84;21124;-79
2021/04/24 04:59:05;;;;;;;3.03;1.97;;;;;;;5.47;60.42;100479.33;1669303;84;21183;-79
2021/04/24 05:01:33;;;;;;;2.43;1.63;;;;;;;5.50;59.81;100484.33;1671051;84;21152;-79
2021/04/24 05:04:01;;;;;;;4.03;2.07;;;;;;;5.48;59.74;100488.09;1639706;86;21359;-82
2021/04/24 05:06:27;;;;;;;;;;;;;;;5.46;59.92;100480.30;1672824;84;21212;-79
2021/04/24 05:08:55;;;;;;;1.85;1.17;;;;;;;5.51;60.17;100479.36;1638495;86;20182;-79
2021/04/24 05:11:23;;;;;;;2.03;1.30;;;;;;;5.49;60.44;100481.33;1671634;84;21185;-79
2021/04/24 05:13:53;;;;;;;4.50;1.67;;;;;;;5.56;60.17;100486.36;1690127;83;21174;-78
2021/04/24 05:16:21;;;;;;;3.07;1.10;;;;;;;5.64;59.64;100474.52;1661176;84;21666;-80
2021/04/24 05:18:47;;;;;;;4.00;1.30;;;;;;;5.84;59.34;100469.06;1687688;83;21179;-77
2021/04/24 05:21:14;;;;;;;1.90;0.83;;;;;;;6.11;58.31;100478.69;1688460;83;21208;-78
2021/04/24 05:23:42;;;;;;;0.90;0.80;;;;;;;6.32;57.45;100477.50;1684564;83;21117;-78
2021/04/24 05:26:09;;;;;;;2.60;1.33;;;;;;;6.51;57.02;100472.45;1684169;83;21310;-78
2021/04/24 05:28:36;;;;;;;3.87;1.63;;;;;;;6.60;56.53;100461.73;1679595;83;21333;-80
2021/04/24 05:31:03;;;;;;;1.47;1.37;;;;;;;6.71;55.53;100466.43;1680185;83;21650;-79
2021/04/24 05:33:30;;;;;;;2.13;1.20;;;;;;;6.65;55.99;100472.34;1673582;83;21116;-79
2021/04/24 05:36:01;;;;;;;3.37;1.93;;;;;;;6.67;56.11;100470.36;1668203;84;21192;-76
2021/04/24 05:38:27;;;;;;;2.03;1.40;;;;;;;6.63;55.94;100473.34;1667019;84;21356;-78
2021/04/24 05:40:55;;;;;;;3.67;1.50;;;;;;;6.55;56.66;100469.83;1670069;84;21256;-79
2021/04/24 05:43:22;;;;;;;2.20;1.23;;;;;;;6.64;56.37;100468.88;1674934;84;21506;-79
2021/04/24 05:45:49;;;;;;;2.90;1.20;;;;;;;6.69;56.36;100466.58;1658098;84;21124;-80
2021/04/24 05:48:15;;;;;;;;;;;;;;;6.69;55.97;100466.58;1651391;85;21200;-79
2021/04/24 05:50:43;;;;;;;1.80;1.20;;;;;;;6.60;55.70;100474.16;1647416;85;20211;-79
2021/04/24 05:53:09;;;;;;;2.33;0.93;;;;;;;6.45;56.23;100475.75;1637138;85;21785;-80
2021/04/24 05:55:37;;;;;;;1.93;1.50;;;;;;;6.33;56.16;100470.73;1636899;84;21702;-80
2021/04/24 05:58:04;;;;;;;3.07;1.93;;;;;;;5.52;56.51;100375.75;1621076;86;21188;-79
2021/04/24 06:00:31;;;;;;;;;;;;;;;6.15;57.10;100491.13;1645724;84;21752;-79
2021/04/24 06:03:06;;;;;;;4.80;1.83;;;;;;;6.07;57.23;100489.26;1634972;86;20199;-80
2021/04/24 06:05:33;;;;;;;7.57;4.80;;;;;;;5.95;57.50;100488.69;1633396;86;21677;-80
2021/04/24 06:08:02;;;;;;;6.20;4.53;;;;;;;5.93;57.50;100480.02;1630188;86;21216;-81
2021/04/24 06:10:29;;;;;;;3.87;2.93;;;;;;;5.98;57.19;100478.28;1629690;86;21196;-79
2021/04/24 06:12:56;;;;;;;2.77;2.17;;;;;;;6.14;57.42;100484.16;1658974;84;21119;-79
2021/04/24 06:15:23;;;;;;;3.60;1.97;;;;;;;6.27;56.24;100484.56;1663411;84;21243;-79
2021/04/24 06:17:50;;;;;;;1.77;1.67;;;;;;;6.45;55.44;100481.05;1650850;84;21223;-80
2021/04/24 06:20:19;;;;;;;1.47;1.37;;;;;;;6.57;55.68;100487.70;1633861;86;21200;-80
2021/04/24 06:22:47;;;;;;;2.03;1.83;;;;;;;6.74;55.08;100479.33;1637186;85;21304;-79
2021/04/24 06:25:17;;;;;;;5.67;4.13;;;;;;;6.85;55.12;100464.47;1671799;84;21208;-81
2021/04/24 06:27:46;;;;;;;5.80;2.70;;;;;;;6.93;54.62;100479.56;1667760;84;21591;-80
2021/04/24 06:30:18;;;;;;;3.50;2.07;;;;;;;6.95;53.72;100477.11;1673561;84;21629;-80
2021/04/24 06:32:49;;;;;;;1.90;1.17;;;;;;;6.93;53.13;100474.27;1670578;84;21172;-80
2021/04/24 06:35:19;;;;;;;2.93;1.20;;;;;;;6.98;52.21;100475.94;1669773;84;21036;-79
2021/04/24 06:37:46;;;;;;;5.53;2.00;;;;;;;7.24;50.25;100467.88;1647988;85;21239;-80
2021/04/24 06:40:16;;;;;;;2.67;1.20;;;;;;;7.66;48.27;100469.56;1647557;85;21170;-81
2021/04/24 06:42:44;;;;;;;2.73;0.77;;;;;;;8.15;46.26;100476.66;1645215;85;21238;-80
2021/04/24 06:45:13;;;;;;;2.20;0.50;;;;;;;8.68;45.05;100471.23;1668972;84;21234;-79
2021/04/24 06:47:41;;;;;;;0.70;0.47;;;;;;;9.34;42.73;100473.50;1680320;84;21232;-84
2021/04/24 06:50:12;;;;;;;2.47;1.40;;;;;;;9.64;42.37;100476.28;1685225;84;21230;-81
2021/04/24 06:52:40;;;;;;;2.03;0.90;;;;;;;9.68;41.67;100462.93;1680680;84;21203;-78
2021/04/24 06:55:10;;;;;;;1.93;0.60;;;;;;;9.49;41.03;100463.77;1678892;84;21240;-77
2021/04/24 06:57:37;;;;;;;1.57;0.50;;;;;;;9.25;39.88;100466.58;1665874;84;21210;-82
2021/04/24 07:00:08;;;;;;;5.83;0.30;;;;;;;9.01;40.02;100460.93;1670137;84;21211;-79
2021/04/24 07:02:36;;;;;;;0.73;0.27;;;;;;;8.83;40.38;100470.48;1679532;84;21198;-78
2021/04/24 07:05:07;;;;;;;2.63;0.30;;;;;;;8.64;40.57;100471.73;1682222;84;21349;-79
2021/04/24 07:07:34;;;;;;;1.13;0.60;;;;;;;8.44;41.11;100476.61;1682818;84;21705;-76
2021/04/24 07:10:01;;;;;;;2.20;0.20;;;;;;;8.19;41.00;100466.87;1683906;84;21174;-78
2021/04/24 07:12:27;;;;;;;2.20;0.30;;;;;;;8.07;40.32;100460.75;1651303;84;21569;-78
2021/04/24 07:14:55;;;;;;;4.57;0.30;;;;;;;8.16;39.38;100471.69;1641197;84;21176;-77
2021/04/24 07:17:23;;;;;;;0.50;0.30;;;;;;;8.30;38.40;100476.78;1683660;84;21193;-80
2021/04/24 07:19:52;;;;;;;2.20;0.10;;;;;;;8.37;37.92;100483.08;1677844;84;21338;-77
2021/04/24 07:22:21;;;;;;;1.80;0.40;;;;;;;8.43;38.49;100474.45;1684306;82;21329;-79
2021/04/24 07:24:50;;;;;;;1.13;0.20;;;;;;;8.53;38.43;100467.13;1685382;84;22122;-79
2021/04/24 07:27:17;;;;;;;2.53;0.73;;;;;;;8.53;37.83;100463.15;1665855;84;22189;-80
2021/04/24 07:29:45;;;;;;;2.50;0.20;;;;;;;8.48;37.19;100468.64;1668034;86;21319;-81
2021/04/24 07:32:12;;;;;;;3.13;0.20;;;;;;;8.37;36.45;100474.61;1667047;84;21184;-83
2021/04/24 07:34:39;;;;;;;0.57;0.30;;;;;;;8.34;37.47;100482.08;1658164;84;21114;-80
2021/04/24 07:37:06;;;;;;;0.63;0.20;;;;;;;8.34;37.54;100486.92;1685724;84;21260;-80
2021/04/24 07:39:33;;;;;;;1.67;0.20;;;;;;;8.36;37.25;100482.27;1687115;84;21333;-81
2021/04/24 07:42:00;;;;;;;0.83;0.43;;;;;;;8.42;37.77;100486.58;1685438;84;21726;-82
2021/04/24 07:44:28;;;;;;;3.70;0.37;;;;;;;8.46;37.47;100478.11;1682720;83;21680;-82
2021/04/24 07:46:55;;;;;;;0.40;0.30;;;;;;;8.44;37.39;100473.47;1679905;84;21352;-81
2021/04/24 07:49:22;;;;;;;5.07;0.50;;;;;;;8.41;36.91;100480.92;1682608;84;21317;-81
2021/04/24 07:51:50;;;;;;;0.60;0.40;;;;;;;8.46;37.14;100487.41;1681069;84;21309;-81
2021/04/24 07:54:16;;;;;;;1.90;0.10;;;;;;;8.54;36.86;100480.73;1677771;84;21179;-82
2021/04/24 07:56:44;;;;;;;0.40;0.20;;;;;;;8.67;36.90;100484.17;1680613;83;21100;-81
2021/04/24 07:59:11;;;;;;;2.37;0.20;;;;;;;8.76;36.39;100485.80;1680337;84;22102;-81
2021/04/24 08:01:39;;;;;;;1.77;0.20;;;;;;;8.73;36.51;100481.33;1679753;84;21107;-82
2021/04/24 08:04:07;;;;;;;2.23;0.30;;;;;;;8.58;37.21;100493.99;1677111;84;21190;-82
2021/04/24 08:06:36;;;;;;;0.70;0.30;;;;;;;8.54;37.62;100497.17;1675300;84;21198;-81
2021/04/24 08:09:05;;;;;;;2.00;0.20;;;;;;;8.47;37.75;100501.51;1675357;84;21190;-81
2021/04/24 08:11:33;;;;;;;0.37;0.20;;;;;;;8.37;37.51;100503.83;1684605;84;21028;-81
2021/04/24 08:14:04;;;;;;;0.30;0.10;;;;;;;8.29;37.45;100505.18;1681116;84;21208;-81
2021/04/24 08:16:31;;;;;;;0.20;0.20;;;;;;;8.25;37.26;100497.70;1683117;84;21203;-79
2021/04/24 08:19:00;;;;;;;1.67;0.20;;;;;;;8.20;36.47;100499.55;1687440;83;21213;-83
2021/04/24 08:21:32;;;;;;;1.40;0.17;;;;;;;8.19;36.71;100496.08;1663987;85;21354;-80
2021/04/24 08:24:01;;;;;;;0.60;0.20;;;;;;;8.18;36.99;100494.91;1672917;82;21143;-82
2021/04/24 08:26:30;;;;;;;0.20;0.10;;;;;;;8.15;37.69;100497.39;1668617;84;21208;-83
2021/04/24 08:28:58;;;;;;;3.80;0.20;;;;;;;8.18;36.42;100497.06;1679610;84;21640;-81
2021/04/24 08:31:25;;;;;;;1.50;0.10;;;;;;;8.18;36.66;100495.73;1668492;84;21224;-81
2021/04/24 08:33:54;;;;;;;0.40;0.10;;;;;;;8.20;36.52;100495.57;1673897;83;21582;-89
2021/04/24 08:36:25;;;;;;;2.93;0.10;;;;;;;8.26;36.40;100493.56;1665981;84;21203;-91
2021/04/24 08:38:52;;;;;;;1.53;0.30;;;;;;;8.29;35.71;100503.86;1648608;85;21213;-92
2021/04/24 08:41:21;;;;;;;0.70;0.10;;;;;;;8.24;35.80;100512.81;1668792;84;21904;-92
2021/04/24 08:43:49;;;;;;;0.97;0.20;;;;;;;8.11;36.30;100496.07;1673880;85;21203;-91
2021/04/24 08:46:19;;;;;;;0.60;0.20;;;;;;;8.06;37.50;100505.06;1647975;85;21456;-90
2021/04/24 08:48:48;;;;;;;1.20;0.27;;;;;;;8.07;37.26;100509.86;1635263;85;21343;-91
2021/04/24 08:51:19;;;;;;;2.00;0.10;;;;;;;8.06;36.71;100504.20;1642030;85;21192;-92
2021/04/24 08:53:51;;;;;;;0.30;0.10;;;;;;;8.04;36.70;100510.19;1647824;85;21353;-89
2021/04/24 08:56:23;;;;;;;0.70;0.20;;;;;;;8.05;37.63;100522.48;1621406;85;21153;-91
2021/04/24 08:58:50;;;;;;;1.37;0.10;;;;;;;8.08;37.73;100512.36;1619776;87;21825;-92
2021/04/24 09:01:20;;;;;;;2.40;0.10;;;;;;;8.10;37.87;100503.72;1665781;83;21076;-92
2021/04/24 09:03:49;;;;;;;0.20;0.20;;;;;;;8.15;39.20;100507.19;1654263;85;21182;-94
2021/04/24 09:06:21;;;;;;;0.57;0.30;;;;;;;8.19;37.96;100517.80;1663744;85;21210;-91
2021/04/24 09:09:01;;;;;;;1.13;0.10;;;;;;;8.21;37.83;100503.03;1646267;86;21234;-94
2021/04/24 09:11:45;;;;;;;0.20;0.10;;;;;;;8.23;38.00;100533.75;1649656;84;21533;-91
2021/04/24 09:14:15;;;;;;;1.13;0.10;;;;;;;8.23;38.08;100529.77;1689459;83;21172;-92
2021/04/24 09:16:44;;;;;;;0.60;0.20;;;;;;;8.23;37.67;100524.45;1690364;83;21283;-89
2021/04/24 09:19:36;;;;;;;2.73;0.27;;;;;;;8.17;37.86;100526.43;1674933;84;21188;-91
2021/04/24 09:22:22;;;;;;;0.80;0.20;;;;;;;8.18;38.07;100525.45;1668442;83;21162;-91
2021/04/24 09:24:55;;;;;;;0.40;0.10;;;;;;;8.27;37.42;100520.46;1688270;83;21210;-91
2021/04/24 09:27:47;;;;;;;0.10;0.10;;;;;;;8.37;36.66;100519.76;1685777;83;22359;-93
2021/04/24 09:30:30;;;;;;;0.20;0.10;;;;;;;8.47;36.33;100509.48;1672696;83;21324;-91
2021/04/24 09:33:11;;;;;;;0.23;0.10;;;;;;;8.50;36.43;100507.82;1692932;83;21203;-94
2021/04/24 09:35:50;;;;;;;0.40;0.20;;;;;;;8.47;37.06;100533.39;1693032;83;21204;-94
2021/04/24 09:38:28;;;;;;;3.13;0.30;;;;;;;8.46;37.30;100529.91;1691400;83;21232;-90
2021/04/24 09:41:20;;;;;;;1.20;0.30;;;;;;;8.47;37.66;100540.03;1670923;84;21153;-90
2021/04/24 09:43:58;;;;;;;0.30;0.10;;;;;;;8.50;38.17;100526.42;1674711;84;21668;-92
2021/04/24 09:46:54;;;;;;;2.23;0.10;;;;;;;8.53;38.13;100531.38;1695507;83;21091;-91
2021/04/24 09:49:30;;;;;;;0.60;0.10;;;;;;;8.51;38.33;100528.06;1651512;85;21161;-92
2021/04/24 09:52:03;;;;;;;0.82;0.25;;;;;;;8.53;38.04;100531.38;1651754;87;21747;-92
2021/04/24 09:54:43;;;;;;;1.40;0.10;;;;;;;8.51;37.94;100536.03;1704644;84;21313;-94
2021/04/24 09:57:20;;;;;;;0.10;0.10;;;;;;;8.48;38.02;100529.75;1690097;84;21615;-92
2021/04/24 09:59:57;;;;;;;0.83;0.33;;;;;;;8.45;38.55;100533.55;1698826;83;21187;-77
2021/04/24 10:02:38;;;;;;;0.67;0.33;;;;;;;8.39;38.58;100537.69;1699735;83;21125;-78
2021/04/24 10:05:17;;;;;;;0.17;0.10;;;;;;;8.31;38.29;100538.22;1687827;83;21351;-78
2021/04/24 10:07:53;;;;;;;3.10;0.70;;;;;;;8.19;38.57;100552.31;1694580;83;21155;-80
2021/04/24 10:10:35;;;;;;;0.67;0.63;;;;;;;8.14;39.26;100559.47;1678251;83;21635;-78
2021/04/24 10:13:07;;;;;;;0.53;0.30;;;;;;;8.14;39.27;100550.69;1658148;84;21116;-84
2021/04/24 10:15:44;;;;;;;0.57;0.20;;;;;;;8.17;39.09;100547.67;1662500;85;21615;-78
2021/04/24 10:18:15;;;;;;;0.55;0.13;;;;;;;8.21;39.35;100538.37;1663613;85;21776;-79
2021/04/24 10:20:47;;;;;;;2.63;0.30;;;;;;;8.27;39.10;100539.52;1655160;85;21175;-78
2021/04/24 10:23:15;;;;;;;1.57;0.40;;;;;;;8.33;38.97;100537.55;1662573;84;21619;-77
2021/04/24 10:25:44;;;;;;;5.43;0.30;;;;;;;8.46;38.25;100530.42;1649175;85;21188;-78
2021/04/24 10:28:11;;;;;;;0.43;0.17;;;;;;;8.56;37.08;100538.50;1667505;84;21361;-78
2021/04/24 10:30:39;;;;;;;0.20;0.10;;;;;;;8.58;37.36;100538.34;1649568;85;21187;-79
2021/04/24 10:33:07;;;;;;;1.57;0.10;;;;;;;8.55;35.81;100530.22;1653383;85;21230;-89
2021/04/24 10:35:36;;;;;;;2.13;0.10;;;;;;;8.51;34.79;100551.49;1644478;85;21346;-94
2021/04/24 10:38:07;;;;;;;4.70;0.33;;;;;;;8.49;34.87;100551.31;1600481;88;21345;-95
2021/04/24 10:40:47;;;;;;;4.13;0.10;;;;;;;8.50;34.79;100551.15;1664259;84;21216;-92
2021/04/24 10:43:23;;;;;;;0.93;0.10;;;;;;;8.53;35.23;100549.97;1662509;85;21199;-91
2021/04/24 10:45:52;;;;;;;0.50;0.20;;;;;;;8.58;35.10;100537.02;1650386;85;21096;-93
2021/04/24 10:48:39;;;;;;;;;;;;;;;;;;;;;
2021/04/24 10:52:16;;;;;;;0.63;0.10;;;;;;;8.55;35.62;100551.95;1902486;74;22210;-92
2021/04/24 10:55:14;;;;;;;2.27;0.10;;;;;;;8.43;35.68;100566.10;1841611;75;21294;-94
2021/04/24 10:58:00;;;;;;;0.53;0.10;;;;;;;8.44;35.59;100556.30;1841824;76;21206;-91
2021/04/24 11:00:42;;;;;;;0.60;0.10;;;;;;;8.49;34.52;100548.66;1823972;77;21057;-95
2021/04/24 11:03:40;;;;;;;1.27;0.40;;;;;;;8.51;34.64;100544.85;1811854;77;21274;-89
2021/04/24 11:06:28;;;;;;;0.50;0.30;;;;;;;8.65;34.77;100534.52;1765129;79;22971;-94
2021/04/24 11:09:23;;;;;;;1.23;0.70;;;;;;;8.64;34.83;100545.63;1782535;80;21141;-93
2021/04/24 11:12:03;;;;;;;0.60;0.30;;;;;;;8.68;34.76;100548.30;1750663;79;21363;-94
2021/04/24 11:14:32;;;;;;;0.40;0.27;;;;;;;8.64;34.47;100540.31;1713204;82;21172;-93
2021/04/24 11:17:05;;;;;;;1.63;0.23;;;;;;;8.61;34.39;100563.25;1701660;82;21305;-93
2021/04/24 11:19:47;;;;;;;2.20;0.90;;;;;;;8.60;35.02;100545.64;1709619;82;21337;-93
2021/04/24 11:22:44;;;;;;;0.53;0.33;;;;;;;8.60;34.70;100560.77;1701384;82;21433;-92
2021/04/24 11:54:55;;;;;;;0.60;0.20;;;;;;;8.53;33.35;100556.61;1722987;78;21771;-93
2021/04/24 11:57:26;;;;;;;0.77;0.10;;;;;;;8.60;33.10;100550.95;1628328;83;21583;-93
2021/04/24 11:59:57;;;;;;;0.20;0.10;;;;;;;8.68;33.16;100547.44;1629803;86;21239;-92
2021/04/24 12:13:36;;;;;;;1.07;0.53;;;;;;;8.92;32.30;100535.90;1757413;80;24276;-87
2021/04/24 12:16:44;;;;;;;1.90;0.30;;;;;;;8.81;32.53;100537.61;1723808;81;21800;-91
2021/04/24 12:19:34;;;;;;;0.70;0.10;;;;;;;8.81;33.04;100534.95;1716484;81;21177;-92
2021/04/24 12:22:17;;;;;;;0.30;0.20;;;;;;;8.83;33.05;100547.05;1724134;78;21138;-91
2021/04/24 12:25:03;;;;;;;0.40;0.10;;;;;;;8.86;33.06;100536.59;1753838;81;21808;-93
2021/04/24 12:38:31;;;;;;;;;;;;;;;;;;;;;
2021/04/24 12:54:31;;;;;;;1.07;0.30;;;;;;;7.82;33.21;100394.44;1780018;76;21286;-82
2021/04/24 12:57:19;;;;;;;0.40;0.10;;;;;;;8.76;33.19;100520.86;1753896;80;22983;-94
2021/04/24 13:00:09;;;;;;;2.40;0.20;;;;;;;8.77;32.73;100535.79;1756166;80;21620;-94
2021/04/24 13:02:39;;;;;;;1.63;0.20;;;;;;;8.75;32.88;100531.97;1694748;83;21189;-92